createdAt,value
2019-02-02T00:01:03.422Z,17.37
2019-02-02T00:03:34.905Z,18.97
2019-02-02T00:06:06.542Z,17.10
2019-02-02T00:08:37.895Z,19.17
2019-02-02T00:11:09.377Z,18.27
2019-02-02T00:13:40.714Z,17.83
2019-02-02T00:16:12.021Z,17.97
2019-02-02T00:18:43.802Z,21.27
2019-02-02T00:21:15.157Z,20.40
2019-02-02T00:23:50.109Z,18.20
2019-02-02T00:26:21.626Z,20.77
2019-02-02T00:28:53.202Z,20.50
2019-02-02T00:31:25.494Z,21.00
2019-02-02T00:33:56.871Z,21.23
2019-02-02T00:36:28.410Z,20.83
2019-02-02T00:38:59.797Z,20.67
2019-02-02T00:41:31.104Z,20.43
2019-02-02T00:44:02.507Z,22.40
2019-02-02T00:46:33.845Z,20.87
2019-02-02T00:49:05.856Z,20.10
2019-02-02T00:51:37.361Z,21.80
2019-02-02T00:54:08.931Z,21.27
2019-02-02T00:56:40.080Z,21.07
2019-02-02T00:59:11.426Z,21.00
2019-02-02T01:01:45.831Z,23.73
2019-02-02T01:04:20.165Z,20.80
2019-02-02T01:06:56.569Z,20.57
2019-02-02T01:09:28.795Z,22.47
2019-02-02T01:12:00.139Z,22.40
2019-02-02T01:14:32.127Z,21.70
2019-02-02T01:17:03.356Z,25.53
2019-02-02T01:19:34.469Z,22.30
2019-02-02T01:22:07.896Z,22.20
2019-02-02T01:24:39.187Z,22.83
2019-02-02T01:27:10.698Z,21.90
2019-02-02T01:29:44.821Z,21.07
2019-02-02T01:32:22.411Z,22.33
2019-02-02T01:34:53.699Z,22.43
2019-02-02T01:37:25.366Z,21.87
2019-02-02T01:39:56.577Z,23.23
2019-02-02T01:42:27.772Z,20.47
2019-02-02T01:45:02.479Z,22.10
2019-02-02T01:47:33.981Z,20.47
2019-02-02T01:50:06.303Z,22.87
2019-02-02T01:52:37.550Z,21.00
2019-02-02T01:55:11.056Z,20.90
2019-02-02T01:57:42.477Z,20.17
2019-02-02T02:00:21.711Z,22.30
2019-02-02T02:02:52.902Z,20.03
2019-02-02T02:05:24.248Z,22.17
2019-02-02T02:07:56.954Z,20.37
2019-02-02T02:10:29.427Z,20.87
2019-02-02T02:13:01.719Z,20.10
2019-02-02T02:15:33.714Z,21.20
2019-02-02T02:18:05.330Z,21.47
2019-02-02T02:20:37.226Z,21.90
2019-02-02T02:23:08.528Z,21.00
2019-02-02T02:25:39.820Z,20.00
2019-02-02T02:28:10.996Z,20.17
2019-02-02T02:30:42.332Z,19.73
2019-02-02T02:33:13.597Z,21.40
2019-02-02T02:35:44.877Z,21.80
2019-02-02T02:38:16.087Z,21.00
2019-02-02T02:40:47.380Z,20.87
2019-02-02T02:43:18.572Z,21.63
2019-02-02T02:45:49.850Z,22.10
2019-02-02T02:48:21.076Z,21.60
2019-02-02T02:50:52.362Z,22.20
2019-02-02T02:53:23.521Z,20.63
2019-02-02T02:55:54.755Z,21.83
2019-02-02T02:58:26.083Z,20.37
2019-02-02T03:00:57.331Z,21.17
2019-02-02T03:03:28.595Z,21.70
2019-02-02T03:05:59.859Z,22.60
2019-02-02T03:08:31.211Z,22.50
2019-02-02T03:11:02.491Z,21.73
2019-02-02T03:13:33.733Z,18.70
2019-02-02T03:16:05.055Z,20.77
2019-02-02T03:18:36.300Z,21.30
2019-02-02T03:21:07.538Z,22.47
2019-02-02T03:23:38.805Z,18.33
2019-02-02T03:26:10.214Z,18.90
2019-02-02T03:28:52.917Z,23.03
2019-02-02T03:31:14.363Z,21.13
2019-02-02T03:33:45.596Z,19.60
2019-02-02T03:36:16.778Z,20.43
2019-02-02T03:38:48.174Z,18.57
2019-02-02T03:41:19.383Z,21.37
2019-02-02T03:43:50.565Z,24.60
2019-02-02T03:46:21.786Z,21.03
2019-02-02T03:48:53.023Z,20.67
2019-02-02T03:51:24.163Z,22.37
2019-02-02T03:54:07.879Z,20.40
2019-02-02T03:56:28.377Z,24.67
2019-02-02T03:59:06.799Z,22.03
2019-02-02T04:01:32.999Z,20.77
2019-02-02T04:04:04.785Z,19.40
2019-02-02T04:06:36.068Z,20.37
2019-02-02T04:09:09.596Z,21.43
2019-02-02T04:11:43.406Z,19.87
2019-02-02T04:14:13.871Z,18.20
2019-02-02T04:16:45.082Z,19.03
2019-02-02T04:19:16.255Z,18.93
2019-02-02T04:21:47.550Z,21.13
2019-02-02T04:24:18.776Z,20.90
2019-02-02T04:26:50.063Z,21.37
2019-02-02T04:29:21.281Z,19.90
2019-02-02T04:31:52.586Z,22.90
2019-02-02T04:34:23.832Z,21.63
2019-02-02T04:36:55.096Z,19.27
2019-02-02T04:39:26.289Z,26.77
2019-02-02T04:41:57.520Z,19.77
2019-02-02T04:44:28.718Z,20.43
2019-02-02T04:46:59.972Z,21.80
2019-02-02T04:49:31.276Z,22.03
2019-02-02T04:52:02.490Z,23.40
2019-02-02T04:54:33.707Z,23.27
2019-02-02T04:57:05.021Z,23.67
2019-02-02T04:59:36.225Z,22.17
2019-02-02T05:02:07.385Z,23.43
2019-02-02T05:04:38.576Z,23.27
2019-02-02T05:07:09.787Z,21.40
2019-02-02T05:09:41.103Z,24.40
2019-02-02T05:12:12.338Z,21.30
2019-02-02T05:14:43.647Z,23.57
2019-02-02T05:17:14.804Z,19.67
2019-02-02T05:19:46.079Z,21.57
2019-02-02T05:22:17.290Z,22.90
2019-02-02T05:24:48.537Z,20.30
2019-02-02T05:27:19.814Z,21.23
2019-02-02T05:29:51.027Z,21.50
2019-02-02T05:32:22.208Z,21.80
2019-02-02T05:34:53.446Z,22.90
2019-02-02T05:37:24.847Z,21.20
2019-02-02T05:39:56.124Z,21.30
2019-02-02T05:42:27.400Z,20.17
2019-02-02T05:44:58.659Z,19.67
2019-02-02T05:47:29.888Z,20.60
2019-02-02T05:50:01.122Z,19.00
2019-02-02T05:52:32.362Z,21.90
2019-02-02T05:55:03.591Z,20.30
2019-02-02T05:57:34.838Z,21.60
2019-02-02T06:00:09.370Z,21.00
2019-02-02T06:02:40.527Z,20.43
2019-02-02T06:05:11.901Z,21.63
2019-02-02T06:07:43.155Z,23.80
2019-02-02T06:10:16.405Z,23.87
2019-02-02T06:12:47.623Z,22.77
2019-02-02T06:15:19.131Z,22.97
2019-02-02T06:17:50.524Z,26.03
2019-02-02T06:20:21.810Z,23.33
2019-02-02T06:22:53.071Z,21.90
2019-02-02T06:25:24.419Z,23.10
2019-02-02T06:27:55.603Z,26.00
2019-02-02T06:30:27.410Z,23.93
2019-02-02T06:32:58.687Z,26.80
2019-02-02T06:35:29.908Z,25.97
2019-02-02T06:38:01.101Z,24.40
2019-02-02T06:40:32.365Z,24.07
2019-02-02T06:43:03.625Z,26.87
2019-02-02T06:45:37.254Z,30.13
2019-02-02T06:48:08.708Z,30.17
2019-02-02T06:50:39.883Z,29.70
2019-02-02T06:53:11.124Z,28.07
2019-02-02T06:55:42.398Z,30.00
2019-02-02T06:58:13.650Z,30.40
2019-02-02T07:00:44.835Z,29.27
2019-02-02T07:03:16.121Z,30.10
2019-02-02T07:05:47.401Z,31.60
2019-02-02T07:08:18.650Z,25.10
2019-02-02T07:10:49.802Z,28.37
2019-02-02T07:13:21.072Z,29.63
2019-02-02T07:15:52.277Z,29.10
2019-02-02T07:18:23.563Z,29.87
2019-02-02T07:20:54.888Z,28.17
2019-02-02T07:23:26.107Z,29.47
2019-02-02T07:25:57.399Z,31.40
2019-02-02T07:28:28.565Z,29.47
2019-02-02T07:30:59.720Z,31.20
2019-02-02T07:33:31.016Z,28.73
2019-02-02T07:36:02.377Z,29.63
2019-02-02T07:38:33.676Z,30.57
2019-02-02T07:41:07.139Z,33.60
2019-02-02T07:43:38.063Z,31.00
2019-02-02T07:46:15.054Z,29.00
2019-02-02T07:48:42.341Z,31.13
2019-02-02T07:51:13.613Z,31.30
2019-02-02T07:53:44.831Z,32.00
2019-02-02T07:56:16.098Z,32.90
2019-02-02T07:58:47.432Z,30.07
2019-02-02T08:01:18.651Z,34.50
2019-02-02T08:03:49.925Z,34.53
2019-02-02T08:06:21.200Z,31.63
2019-02-02T08:08:52.466Z,33.90
2019-02-02T08:11:23.780Z,31.30
2019-02-02T08:13:55.039Z,30.23
2019-02-02T08:16:26.355Z,34.10
2019-02-02T08:18:57.709Z,30.90
2019-02-02T08:21:28.995Z,31.70
2019-02-02T08:24:00.044Z,30.93
2019-02-02T08:26:31.281Z,31.90
2019-02-02T08:29:02.478Z,34.47
2019-02-02T08:31:33.706Z,34.60
2019-02-02T08:34:05.001Z,34.10
2019-02-02T08:36:36.176Z,33.30
2019-02-02T08:39:11.291Z,36.30
2019-02-02T08:41:42.520Z,31.00
2019-02-02T08:44:13.800Z,36.33
2019-02-02T08:47:04.872Z,35.20
2019-02-02T08:49:36.180Z,32.70
2019-02-02T08:52:07.403Z,34.83
2019-02-02T08:54:38.622Z,32.40
2019-02-02T08:57:09.895Z,32.90
2019-02-02T08:59:41.220Z,33.80
2019-02-02T09:02:12.570Z,31.53
2019-02-02T09:04:43.755Z,28.67
2019-02-02T09:07:15.013Z,32.60
2019-02-02T09:09:47.004Z,32.63
2019-02-02T09:12:18.320Z,30.60
2019-02-02T09:14:49.571Z,33.57
2019-02-02T09:17:20.985Z,28.10
2019-02-02T09:19:52.207Z,29.27
2019-02-02T09:22:23.570Z,32.43
2019-02-02T09:24:54.748Z,35.50
2019-02-02T09:27:26.075Z,34.50
2019-02-02T09:29:57.309Z,34.87
2019-02-02T09:32:28.529Z,32.53
2019-02-02T09:34:59.767Z,33.87
2019-02-02T09:37:32.096Z,28.57
2019-02-02T09:40:03.428Z,31.10
2019-02-02T09:42:34.597Z,31.33
2019-02-02T09:45:10.467Z,29.50
2019-02-02T09:47:44.507Z,30.63
2019-02-02T09:50:20.727Z,29.70
2019-02-02T09:52:52.164Z,31.27
2019-02-02T09:55:25.028Z,28.80
2019-02-02T09:58:03.638Z,29.30
2019-02-02T10:00:35.384Z,29.30
2019-02-02T10:03:07.023Z,28.77
2019-02-02T10:05:38.431Z,31.90
2019-02-02T10:08:09.596Z,32.17
2019-02-02T10:10:48.411Z,29.63
2019-02-02T10:13:19.700Z,29.20
2019-02-02T10:15:50.968Z,29.67
2019-02-02T10:18:22.404Z,29.77
2019-02-02T10:21:03.686Z,28.20
2019-02-02T10:23:26.736Z,28.10
2019-02-02T10:25:58.269Z,30.87
2019-02-02T10:28:29.556Z,28.73
2019-02-02T10:31:04.691Z,29.10
2019-02-02T10:33:36.111Z,27.90
2019-02-02T10:36:16.064Z,31.23
2019-02-02T10:38:47.496Z,28.90
2019-02-02T10:41:18.602Z,30.63
2019-02-02T10:43:49.816Z,32.90
2019-02-02T10:46:20.975Z,28.00
2019-02-02T10:48:52.334Z,31.77
2019-02-02T10:51:25.505Z,29.77
2019-02-02T10:53:56.622Z,30.13
2019-02-02T10:56:27.928Z,32.80
2019-02-02T10:58:59.186Z,32.43
2019-02-02T11:01:30.529Z,32.07
2019-02-02T11:04:01.777Z,30.80
2019-02-02T11:06:33.217Z,35.03
2019-02-02T11:09:06.182Z,31.33
2019-02-02T11:11:37.445Z,32.63
2019-02-02T11:14:08.864Z,34.60
2019-02-02T11:16:40.185Z,32.63
2019-02-02T11:19:11.615Z,33.97
2019-02-02T11:21:43.077Z,34.63
2019-02-02T11:24:14.614Z,33.10
2019-02-02T11:26:46.036Z,30.27
2019-02-02T11:29:17.521Z,34.27
2019-02-02T11:31:48.867Z,32.07
2019-02-02T11:34:20.175Z,33.30
2019-02-02T11:36:51.350Z,33.27
2019-02-02T11:39:22.569Z,33.07
2019-02-02T11:41:53.819Z,33.80
2019-02-02T11:44:25.147Z,32.73
2019-02-02T11:46:56.460Z,34.50
2019-02-02T11:49:27.874Z,33.87
2019-02-02T11:51:59.118Z,32.30
2019-02-02T11:54:30.559Z,34.73
2019-02-02T11:57:02.023Z,35.20
2019-02-02T11:59:33.362Z,34.07
2019-02-02T12:02:14.243Z,33.83
2019-02-02T12:04:37.736Z,37.17
2019-02-02T12:07:09.021Z,37.10
2019-02-02T12:09:40.297Z,37.67
2019-02-02T12:12:11.567Z,37.87
2019-02-02T12:14:42.953Z,36.27
2019-02-02T12:17:14.225Z,35.67
2019-02-02T12:19:45.425Z,38.90
2019-02-02T12:22:16.716Z,38.60
2019-02-02T12:24:48.079Z,33.90
2019-02-02T12:27:19.338Z,38.20
2019-02-02T12:29:50.608Z,42.57
2019-02-02T12:32:26.644Z,37.60
2019-02-02T12:34:54.839Z,40.53
2019-02-02T12:37:26.184Z,36.10
2019-02-02T12:39:57.554Z,39.27
2019-02-02T12:42:28.903Z,36.77
2019-02-02T12:45:00.334Z,40.20
2019-02-02T12:47:31.715Z,39.80
2019-02-02T12:50:03.009Z,42.17
2019-02-02T12:52:34.557Z,38.63
2019-02-02T12:55:06.261Z,40.40
2019-02-02T12:57:37.575Z,41.50
2019-02-02T13:00:15.007Z,41.13
2019-02-02T13:02:46.746Z,36.57
2019-02-02T13:05:20.590Z,38.70
2019-02-02T13:07:52.175Z,38.83
2019-02-02T13:10:26.172Z,42.07
2019-02-02T13:12:57.710Z,36.87
2019-02-02T13:15:29.059Z,38.47
2019-02-02T13:18:00.407Z,38.70
2019-02-02T13:20:31.649Z,42.33
2019-02-02T13:23:02.895Z,42.20
2019-02-02T13:25:34.273Z,39.50
2019-02-02T13:28:05.724Z,38.97
2019-02-02T13:30:38.109Z,41.67
2019-02-02T13:33:09.963Z,38.47
2019-02-02T13:35:44.652Z,42.07
2019-02-02T13:38:15.903Z,40.93
2019-02-02T13:40:47.297Z,42.80
2019-02-02T13:43:18.591Z,40.90
2019-02-02T13:45:49.982Z,37.50
2019-02-02T13:48:28.668Z,41.87
2019-02-02T13:51:00.114Z,41.50
2019-02-02T13:53:31.447Z,43.77
2019-02-02T13:56:02.723Z,43.50
2019-02-02T13:58:34.063Z,37.10
2019-02-02T14:01:05.406Z,39.67
2019-02-02T14:03:36.805Z,41.10
2019-02-02T14:06:09.304Z,41.07
2019-02-02T14:08:40.847Z,43.03
2019-02-02T14:11:12.166Z,44.20
2019-02-02T14:13:43.914Z,44.03
2019-02-02T14:16:15.333Z,40.33
2019-02-02T14:18:46.663Z,44.43
2019-02-02T14:21:17.935Z,43.83
2019-02-02T14:23:49.299Z,41.53
2019-02-02T14:26:20.621Z,41.10
2019-02-02T14:28:51.877Z,41.27
2019-02-02T14:31:23.281Z,40.27
2019-02-02T14:33:56.975Z,39.70
2019-02-02T14:36:28.307Z,41.30
2019-02-02T14:38:59.600Z,42.90
2019-02-02T14:41:31.022Z,40.70
2019-02-02T14:44:02.321Z,39.37
2019-02-02T14:46:33.808Z,41.90
2019-02-02T14:49:05.162Z,46.10
2019-02-02T14:51:36.507Z,43.20
2019-02-02T14:54:26.785Z,42.20
2019-02-02T14:56:58.150Z,43.23
2019-02-02T14:59:29.456Z,40.47
2019-02-02T15:02:00.899Z,43.60
2019-02-02T15:04:32.230Z,41.47
2019-02-02T15:07:03.525Z,41.53
2019-02-02T15:09:34.847Z,42.20
2019-02-02T15:12:06.168Z,44.57
2019-02-02T15:14:39.472Z,44.77
2019-02-02T15:17:10.684Z,47.57
2019-02-02T15:19:42.092Z,46.67
2019-02-02T15:22:13.392Z,51.03
2019-02-02T15:24:44.698Z,48.63
2019-02-02T15:27:16.305Z,45.53
2019-02-02T15:29:47.634Z,45.47
2019-02-02T15:32:18.897Z,44.00
2019-02-02T15:34:50.249Z,47.07
2019-02-02T15:37:21.506Z,44.17
2019-02-02T15:39:52.998Z,51.17
2019-02-02T15:42:24.502Z,49.47
2019-02-02T15:44:58.069Z,43.27
2019-02-02T15:47:29.395Z,50.67
2019-02-02T15:50:00.741Z,48.50
2019-02-02T15:52:32.227Z,45.07
2019-02-02T15:55:03.640Z,49.70
2019-02-02T15:57:35.043Z,51.23
2019-02-02T16:00:09.852Z,48.60
2019-02-02T16:02:41.168Z,48.60
2019-02-02T16:05:14.914Z,45.63
2019-02-02T16:07:46.203Z,48.87
2019-02-02T16:10:21.324Z,45.73
2019-02-02T16:12:53.031Z,42.50
2019-02-02T16:15:24.344Z,45.70
2019-02-02T16:17:55.689Z,47.50
2019-02-02T16:20:33.540Z,47.47
2019-02-02T16:23:05.067Z,49.27
2019-02-02T16:25:36.440Z,47.50
2019-02-02T16:28:08.305Z,53.10
2019-02-02T16:30:39.542Z,48.97
2019-02-02T16:33:10.915Z,49.90
2019-02-02T16:35:42.234Z,53.03
2019-02-02T16:38:13.535Z,50.77
2019-02-02T16:40:44.893Z,48.73
2019-02-02T16:43:16.145Z,48.57
2019-02-02T16:45:47.424Z,51.60
2019-02-02T16:48:18.738Z,46.40
2019-02-02T16:50:50.005Z,52.13
2019-02-02T16:53:21.903Z,47.57
2019-02-02T16:55:53.357Z,48.67
2019-02-02T16:58:24.651Z,49.80
2019-02-02T17:00:55.968Z,49.50
2019-02-02T17:03:27.294Z,48.73
2019-02-02T17:05:58.518Z,49.20
2019-02-02T17:08:29.717Z,52.60
2019-02-02T17:11:00.999Z,48.57
2019-02-02T17:13:32.289Z,48.27
2019-02-02T17:16:03.530Z,47.70
2019-02-02T17:18:34.707Z,47.00
2019-02-02T17:21:06.405Z,44.77
2019-02-02T17:23:37.667Z,45.40
2019-02-02T17:26:09.380Z,45.13
2019-02-02T17:28:40.647Z,43.40
2019-02-02T17:31:14.547Z,43.33
2019-02-02T17:33:45.788Z,42.80
2019-02-02T17:36:17.290Z,42.07
2019-02-02T17:38:48.491Z,47.70
2019-02-02T17:41:19.765Z,39.83
2019-02-02T17:43:51.323Z,42.63
2019-02-02T17:46:22.589Z,43.83
2019-02-02T17:48:53.875Z,41.40
2019-02-02T17:51:25.190Z,45.93
2019-02-02T17:53:56.487Z,41.90
2019-02-02T17:56:27.757Z,43.30
2019-02-02T17:58:59.221Z,42.57
2019-02-02T18:01:30.701Z,41.50
2019-02-02T18:04:02.102Z,45.10
2019-02-02T18:06:33.245Z,40.00
2019-02-02T18:09:06.202Z,43.00
2019-02-02T18:11:37.548Z,44.10
2019-02-02T18:14:08.815Z,46.60
2019-02-02T18:16:40.462Z,45.37
2019-02-02T18:19:11.761Z,45.47
2019-02-02T18:21:43.149Z,44.10
2019-02-02T18:24:14.433Z,44.43
2019-02-02T18:26:45.808Z,42.53
2019-02-02T18:29:17.226Z,46.23
2019-02-02T18:31:48.721Z,48.80
2019-02-02T18:34:19.909Z,45.97
2019-02-02T18:36:54.150Z,49.17
2019-02-02T18:39:25.390Z,41.83
2019-02-02T18:41:56.688Z,46.17
2019-02-02T18:44:31.090Z,51.50
2019-02-02T18:47:02.429Z,44.53
2019-02-02T18:49:33.769Z,47.27
2019-02-02T18:52:06.213Z,44.80
2019-02-02T18:54:39.398Z,44.77
2019-02-02T18:57:10.853Z,50.67
2019-02-02T18:59:46.442Z,49.87
2019-02-02T19:02:18.056Z,49.70
2019-02-02T19:05:03.462Z,50.27
2019-02-02T19:07:27.162Z,44.30
2019-02-02T19:09:58.669Z,47.13
2019-02-02T19:12:29.960Z,46.07
2019-02-02T19:15:07.513Z,50.50
2019-02-02T19:17:39.122Z,46.57
2019-02-02T19:20:15.218Z,49.03
2019-02-02T19:22:51.083Z,51.07
2019-02-02T19:25:22.719Z,45.47
2019-02-02T19:27:54.217Z,43.73
2019-02-02T19:30:29.133Z,48.50
2019-02-02T19:33:01.553Z,46.07
2019-02-02T19:35:33.497Z,48.40
2019-02-02T19:38:04.927Z,45.70
2019-02-02T19:40:36.374Z,41.23
2019-02-02T19:43:07.971Z,45.27
2019-02-02T19:45:42.492Z,44.57
2019-02-02T19:48:17.963Z,34.57
2019-02-02T19:50:49.170Z,48.07
2019-02-02T19:53:20.892Z,44.17
2019-02-02T19:55:52.206Z,41.50
2019-02-02T19:58:23.545Z,39.60
2019-02-02T20:00:54.955Z,38.27
2019-02-02T20:03:26.178Z,36.73
2019-02-02T20:05:57.455Z,39.10
2019-02-02T20:08:28.771Z,36.67
2019-02-02T20:11:01.574Z,40.97
2019-02-02T20:13:38.701Z,40.60
2019-02-02T20:16:10.211Z,36.20
2019-02-02T20:18:41.583Z,40.70
2019-02-02T20:21:15.546Z,50.47
2019-02-02T20:23:46.838Z,36.30
2019-02-02T20:26:18.093Z,39.63
2019-02-02T20:28:49.372Z,34.00
2019-02-02T20:31:20.693Z,40.97
2019-02-02T20:33:51.990Z,38.50
2019-02-02T20:36:23.215Z,34.67
2019-02-02T20:38:54.380Z,34.50
2019-02-02T20:41:25.709Z,38.37
2019-02-02T20:43:56.871Z,43.33
2019-02-02T20:46:28.146Z,41.30
2019-02-02T20:48:59.312Z,41.17
2019-02-02T20:51:30.627Z,40.67
2019-02-02T20:54:01.851Z,32.60
2019-02-02T20:56:33.109Z,40.97
2019-02-02T20:59:04.363Z,38.30
2019-02-02T21:01:35.670Z,41.47
2019-02-02T21:04:07.176Z,44.77
2019-02-02T21:06:38.473Z,43.80
2019-02-02T21:09:10.422Z,43.87
2019-02-02T21:11:41.749Z,44.63
2019-02-02T21:14:13.029Z,43.57
2019-02-02T21:16:44.278Z,45.10
2019-02-02T21:19:15.543Z,42.47
2019-02-02T21:21:47.181Z,41.37
2019-02-02T21:24:18.605Z,45.93
2019-02-02T21:26:50.014Z,43.90
2019-02-02T21:29:21.297Z,41.27
2019-02-02T21:31:52.701Z,43.77
2019-02-02T21:34:24.288Z,43.87
2019-02-02T21:36:55.546Z,41.90
2019-02-02T21:39:26.839Z,42.50
2019-02-02T21:41:57.972Z,43.50
2019-02-02T21:44:29.711Z,44.07
2019-02-02T21:47:01.102Z,42.30
2019-02-02T21:49:32.391Z,40.00
2019-02-02T21:52:03.846Z,47.20
2019-02-02T21:54:37.271Z,46.77
2019-02-02T21:57:08.841Z,49.03
2019-02-02T21:59:50.451Z,46.13
2019-02-02T22:02:21.968Z,43.13
2019-02-02T22:04:53.262Z,45.00
2019-02-02T22:07:24.714Z,44.60
2019-02-02T22:09:56.057Z,45.30
2019-02-02T22:12:27.725Z,41.93
2019-02-02T22:15:01.746Z,45.90
2019-02-02T22:17:42.777Z,48.43
2019-02-02T22:20:14.658Z,47.27
2019-02-02T22:22:46.004Z,49.67
2019-02-02T22:25:20.292Z,49.27
2019-02-02T22:27:58.222Z,47.87
2019-02-02T22:30:35.290Z,44.83
2019-02-02T22:33:07.206Z,46.67
2019-02-02T22:35:38.478Z,43.77
2019-02-02T22:38:09.795Z,48.37
2019-02-02T22:40:41.097Z,45.57
2019-02-02T22:43:12.465Z,50.20
2019-02-02T22:45:43.824Z,46.67
2019-02-02T22:48:16.690Z,49.70
2019-02-02T22:50:47.956Z,47.87
2019-02-02T22:53:19.183Z,45.17
2019-02-02T22:55:50.524Z,41.30
2019-02-02T22:58:21.798Z,49.87
2019-02-02T23:01:26.060Z,46.43
2019-02-02T23:05:03.283Z,46.87
2019-02-02T23:08:06.308Z,45.77
2019-02-02T23:11:51.990Z,40.70
2019-02-02T23:15:28.767Z,44.97
2019-02-02T23:18:00.073Z,40.60
2019-02-02T23:20:31.321Z,43.97
2019-02-02T23:23:02.671Z,42.30
2019-02-02T23:25:34.877Z,46.37
2019-02-02T23:28:06.220Z,47.37
2019-02-02T23:30:37.465Z,47.93
2019-02-02T23:33:10.717Z,47.30
2019-02-02T23:35:41.938Z,44.70
2019-02-02T23:38:13.674Z,47.37
2019-02-02T23:40:44.930Z,47.30
2019-02-02T23:43:16.240Z,45.13
2019-02-02T23:45:47.515Z,46.87
2019-02-02T23:48:18.810Z,46.33
2019-02-02T23:50:50.260Z,46.47
2019-02-02T23:53:21.635Z,52.03
2019-02-02T23:55:52.864Z,48.37
2019-02-02T23:58:24.147Z,48.33
